Payson, Illinois
Current Conditions -  °F | °C
As of 7:54 AM on Monday 20 Oct 2014 (Local Time) from KUIN Reporting Station
Clear Clear  
Wind Chill: 52°   Ceiling: Unl
Heat Index: 52°   Visibility: 10mi
Dew Point: 48°   Wind: 7mph
Humidity: 86%   Direction: 300°WNW
Pressure: 29.95"   Gusts: NA
Location:  39.82°N, 91.24°W
Report Text: KUIN 201254Z AUTO 30006KT 10SM CLR 11/09 A2995 RMK AO2 SLP142 T01110089
Loading
Personal Weather Stations






























Interactive Weather Map
Tropical Storm Tracking
New forecast layout! Learn more

10-Day Weather Forecast

Advertisements
Track Severe Weather on mobile